Time;durP1;ratioP1;P1;durP2;ratioP2;P2;SDS_P1;SDS_P2;PMS_P1;PMS_P2;Temp;Humidity;BMP_temperature;BMP_pressure;BME280_temperature;BME280_humidity;BME280_pressure;Samples;Min_cycle;Max_cycle;Signal;HPM_P1;HPM_P2
2024/01/27 00:00:53;;;;;;;;;;;;;;;;;;5073336;28;20342;-43
2024/01/27 00:03:19;;;;;;;;;;;;;;;;;;5073984;28;19928;-45
2024/01/27 00:05:44;;;;;;;;;;;;;;;;;;5073847;28;19925;-43
2024/01/27 00:08:10;;;;;;;;;;;;;;;;;;5073882;28;19931;-46
2024/01/27 00:10:35;;;;;;;;;;;;;;;;;;5073754;28;19972;-44
2024/01/27 00:13:01;;;;;;;;;;;;;;;;;;5073771;28;20429;-46
2024/01/27 00:15:26;;;;;;;;;;;;;;;;;;5073774;28;20079;-43
2024/01/27 00:17:52;;;;;;;;;;;;;;;;;;5073878;28;20388;-44
2024/01/27 00:20:17;;;;;;;;;;;;;;;;;;5072818;28;19925;-44
2024/01/27 00:22:43;;;;;;;;;;;;;;;;;;5073552;28;19968;-45
2024/01/27 00:25:08;;;;;;;;;;;;;;;;;;5073118;28;20003;-43
2024/01/27 00:27:34;;;;;;;;;;;;;;;;;;5073377;28;20011;-44
2024/01/27 00:29:59;;;;;;;;;;;;;;;;;;5073264;28;20327;-44
2024/01/27 00:32:25;;;;;;;;;;;;;;;;;;5073435;28;19959;-44
2024/01/27 00:34:50;;;;;;;;;;;;;;;;;;5073257;28;20023;-44
2024/01/27 00:37:16;;;;;;;;;;;;;;;;;;5073440;28;20356;-45
2024/01/27 00:39:41;;;;;;;;;;;;;;;;;;5069558;28;19925;-44
2024/01/27 00:42:07;;;;;;;;;;;;;;;;;;5073413;28;19931;-45
2024/01/27 00:44:32;;;;;;;;;;;;;;;;;;5073385;28;19947;-44
2024/01/27 00:46:58;;;;;;;;;;;;;;;;;;5073329;28;19975;-43
2024/01/27 00:49:23;;;;;;;;;;;;;;;;;;5073384;28;20059;-43
2024/01/27 00:51:49;;;;;;;;;;;;;;;;;;5073336;28;19978;-43
2024/01/27 00:54:14;;;;;;;;;;;;;;;;;;5072662;28;20009;-45
2024/01/27 00:56:40;;;;;;;;;;;;;;;;;;5073049;28;20004;-43
2024/01/27 00:59:05;;;;;;;;;;;;;;;;;;5072929;28;19924;-45
2024/01/27 01:01:31;;;;;;;;;;;;;;;;;;5072487;28;19976;-46
2024/01/27 01:03:56;;;;;;;;;;;;;;;;;;5073024;28;19966;-44
2024/01/27 01:06:22;;;;;;;;;;;;;;;;;;5072821;28;19986;-46
2024/01/27 01:08:47;;;;;;;;;;;;;;;;;;5072248;28;20015;-44
2024/01/27 01:11:14;;;;;;;;;;;;;;;;;;5072673;28;20383;-44
2024/01/27 01:13:40;;;;;;;;;;;;;;;;;;5072788;28;19968;-45
2024/01/27 01:16:05;;;;;;;;;;;;;;;;;;5072786;28;19932;-45
2024/01/27 01:18:31;;;;;;;;;;;;;;;;;;5072949;28;19925;-44
2024/01/27 01:20:56;;;;;;;;;;;;;;;;;;5072918;28;19924;-46
2024/01/27 01:23:22;;;;;;;;;;;;;;;;;;5072806;28;20070;-47
2024/01/27 01:25:47;;;;;;;;;;;;;;;;;;5072233;28;20219;-44
2024/01/27 01:28:13;;;;;;;;;;;;;;;;;;5072576;28;20288;-43
2024/01/27 01:30:38;;;;;;;;;;;;;;;;;;5071974;28;20291;-43
2024/01/27 01:33:04;;;;;;;;;;;;;;;;;;5072494;28;20376;-44
2024/01/27 01:35:29;;;;;;;;;;;;;;;;;;5072435;28;20023;-43
2024/01/27 01:37:55;;;;;;;;;;;;;;;;;;5072322;28;19925;-44
2024/01/27 01:40:20;;;;;;;;;;;;;;;;;;5067802;28;20332;-43
2024/01/27 01:42:45;;;;;;;;;;;;;;;;;;5052488;28;19964;-43
2024/01/27 01:45:12;;;;;;;;;;;;;;;;;;5052377;28;19974;-45
2024/01/27 01:47:38;;;;;;;;;;;;;;;;;;5052411;28;20025;-44
2024/01/27 01:50:04;;;;;;;;;;;;;;;;;;5052416;28;20396;-45
2024/01/27 01:52:29;;;;;;;;;;;;;;;;;;5052457;28;19936;-44
2024/01/27 01:54:55;;;;;;;;;;;;;;;;;;5051428;28;20361;-44
2024/01/27 01:57:20;;;;;;;;;;;;;;;;;;5052123;28;19952;-44
2024/01/27 01:59:46;;;;;;;;;;;;;;;;;;5051764;28;19933;-47
2024/01/27 02:02:11;;;;;;;;;;;;;;;;;;5052142;28;19925;-44
2024/01/27 02:04:36;;;;;;;;;;;;;;;;;;5052048;28;20023;-45
2024/01/27 02:07:02;;;;;;;;;;;;;;;;;;5051917;28;20043;-45
2024/01/27 02:09:28;;;;;;;;;;;;;;;;;;5052060;28;20415;-44
2024/01/27 02:11:53;;;;;;;;;;;;;;;;;;5052078;28;19947;-45
2024/01/27 02:14:19;;;;;;;;;;;;;;;;;;5052055;28;19925;-44
2024/01/27 02:16:44;;;;;;;;;;;;;;;;;;5052115;28;19978;-45
2024/01/27 02:19:10;;;;;;;;;;;;;;;;;;5052075;28;19968;-43
2024/01/27 02:21:35;;;;;;;;;;;;;;;;;;5052006;28;19972;-44
2024/01/27 02:24:01;;;;;;;;;;;;;;;;;;5051813;28;19935;-43
2024/01/27 02:26:26;;;;;;;;;;;;;;;;;;5051848;28;20015;-43
2024/01/27 02:28:52;;;;;;;;;;;;;;;;;;5051757;28;19925;-44
2024/01/27 02:31:17;;;;;;;;;;;;;;;;;;5051443;28;19999;-43
2024/01/27 02:33:43;;;;;;;;;;;;;;;;;;5051724;28;20008;-43
2024/01/27 02:36:09;;;;;;;;;;;;;;;;;;5051760;28;19924;-45
2024/01/27 02:38:34;;;;;;;;;;;;;;;;;;5051691;28;19924;-43
2024/01/27 02:41:00;;;;;;;;;;;;;;;;;;5051737;28;19968;-43
2024/01/27 02:43:25;;;;;;;;;;;;;;;;;;5065088;28;20012;-44
2024/01/27 02:45:50;;;;;;;;;;;;;;;;;;5075096;28;19988;-44
2024/01/27 02:48:16;;;;;;;;;;;;;;;;;;5075294;28;20163;-44
2024/01/27 02:50:41;;;;;;;;;;;;;;;;;;5075265;28;20276;-47
2024/01/27 02:53:07;;;;;;;;;;;;;;;;;;5075205;28;19964;-45
2024/01/27 02:55:32;;;;;;;;;;;;;;;;;;5074174;28;19930;-43
2024/01/27 02:57:58;;;;;;;;;;;;;;;;;;5075105;28;20077;-43
2024/01/27 03:00:23;;;;;;;;;;;;;;;;;;5074445;28;19924;-43
2024/01/27 03:02:49;;;;;;;;;;;;;;;;;;5074907;28;19925;-44
2024/01/27 03:05:15;;;;;;;;;;;;;;;;;;5074754;28;19925;-44
2024/01/27 03:07:41;;;;;;;;;;;;;;;;;;5074834;28;20283;-45
2024/01/27 03:10:06;;;;;;;;;;;;;;;;;;5074737;28;20261;-46
2024/01/27 03:12:32;;;;;;;;;;;;;;;;;;5074606;28;19964;-43
2024/01/27 03:14:58;;;;;;;;;;;;;;;;;;5074734;28;20016;-44
2024/01/27 03:17:23;;;;;;;;;;;;;;;;;;5074776;28;20004;-45
2024/01/27 03:19:49;;;;;;;;;;;;;;;;;;5074393;28;19947;-43
2024/01/27 03:22:15;;;;;;;;;;;;;;;;;;5074735;28;19974;-45
2024/01/27 03:24:41;;;;;;;;;;;;;;;;;;5074426;28;19971;-45
2024/01/27 03:27:06;;;;;;;;;;;;;;;;;;5074645;28;19932;-44
2024/01/27 03:29:32;;;;;;;;;;;;;;;;;;5074060;28;19960;-43
2024/01/27 03:31:57;;;;;;;;;;;;;;;;;;5074402;28;19962;-44
2024/01/27 03:34:24;;;;;;;;;;;;;;;;;;5074361;28;20328;-46
2024/01/27 03:36:50;;;;;;;;;;;;;;;;;;5074284;28;19994;-44
2024/01/27 03:39:15;;;;;;;;;;;;;;;;;;5074161;28;20043;-43
2024/01/27 03:41:41;;;;;;;;;;;;;;;;;;5074420;28;19956;-47
2024/01/27 03:44:06;;;;;;;;;;;;;;;;;;5072229;28;19925;-44
2024/01/27 03:46:32;;;;;;;;;;;;;;;;;;5054086;28;20012;-43
2024/01/27 03:48:57;;;;;;;;;;;;;;;;;;5054091;28;19964;-45
2024/01/27 03:51:25;;;;;;;;;;;;;;;;;;5054263;28;20375;-45
2024/01/27 03:53:50;;;;;;;;;;;;;;;;;;5053820;28;19974;-43
2024/01/27 03:56:16;;;;;;;;;;;;;;;;;;5053071;28;19971;-45
2024/01/27 03:58:41;;;;;;;;;;;;;;;;;;5053815;28;19931;-43
2024/01/27 04:01:07;;;;;;;;;;;;;;;;;;5053429;28;19959;-43
2024/01/27 04:03:32;;;;;;;;;;;;;;;;;;5053904;28;20268;-42
2024/01/27 04:05:58;;;;;;;;;;;;;;;;;;5053817;28;20017;-45
2024/01/27 04:08:24;;;;;;;;;;;;;;;;;;5053909;28;20288;-44
2024/01/27 04:10:49;;;;;;;;;;;;;;;;;;5053813;28;19952;-44
2024/01/27 04:13:15;;;;;;;;;;;;;;;;;;5053779;28;19924;-45
2024/01/27 04:15:40;;;;;;;;;;;;;;;;;;5053679;28;20011;-45
2024/01/27 04:18:08;;;;;;;;;;;;;;;;;;5053837;28;19980;-43
2024/01/27 04:20:33;;;;;;;;;;;;;;;;;;5053236;28;20390;-43
2024/01/27 04:22:59;;;;;;;;;;;;;;;;;;5053761;28;20007;-46
2024/01/27 04:25:24;;;;;;;;;;;;;;;;;;5053448;28;20015;-46
2024/01/27 04:27:50;;;;;;;;;;;;;;;;;;5053764;28;19925;-44
2024/01/27 04:30:15;;;;;;;;;;;;;;;;;;5053245;28;20020;-45
2024/01/27 04:32:41;;;;;;;;;;;;;;;;;;5053361;28;19979;-43
2024/01/27 04:35:06;;;;;;;;;;;;;;;;;;5053466;28;19924;-45
2024/01/27 04:37:32;;;;;;;;;;;;;;;;;;5053134;28;19929;-44
2024/01/27 04:39:57;;;;;;;;;;;;;;;;;;5053448;28;20436;-44
2024/01/27 04:42:23;;;;;;;;;;;;;;;;;;5053345;28;19925;-45
2024/01/27 04:44:48;;;;;;;;;;;;;;;;;;5052963;28;19978;-43
2024/01/27 04:47:14;;;;;;;;;;;;;;;;;;5057971;28;19964;-43
2024/01/27 04:49:39;;;;;;;;;;;;;;;;;;5053149;28;19964;-44
2024/01/27 04:52:05;;;;;;;;;;;;;;;;;;5053247;28;19925;-43
2024/01/27 04:54:31;;;;;;;;;;;;;;;;;;5052930;28;19929;-43
2024/01/27 04:56:56;;;;;;;;;;;;;;;;;;5053132;28;19929;-43
2024/01/27 04:59:22;;;;;;;;;;;;;;;;;;5052909;28;20465;-45
2024/01/27 05:01:47;;;;;;;;;;;;;;;;;;5052733;28;19952;-44
2024/01/27 05:04:13;;;;;;;;;;;;;;;;;;5052945;28;19929;-48
2024/01/27 05:06:39;;;;;;;;;;;;;;;;;;5052525;28;20394;-43
2024/01/27 05:09:06;;;;;;;;;;;;;;;;;;5052790;28;19929;-45
2024/01/27 05:11:31;;;;;;;;;;;;;;;;;;5052913;28;19928;-44
2024/01/27 05:13:57;;;;;;;;;;;;;;;;;;5052831;28;20059;-43
2024/01/27 05:16:22;;;;;;;;;;;;;;;;;;5052572;28;19972;-46
2024/01/27 05:18:48;;;;;;;;;;;;;;;;;;5052357;28;20013;-43
2024/01/27 05:21:14;;;;;;;;;;;;;;;;;;5052708;28;19931;-44
2024/01/27 05:23:39;;;;;;;;;;;;;;;;;;5052730;28;20016;-44
2024/01/27 05:26:05;;;;;;;;;;;;;;;;;;5052228;28;20435;-46
2024/01/27 05:28:31;;;;;;;;;;;;;;;;;;5052843;28;19928;-44
2024/01/27 05:30:57;;;;;;;;;;;;;;;;;;5052352;28;20043;-43
2024/01/27 05:33:22;;;;;;;;;;;;;;;;;;5052472;28;19936;-44
2024/01/27 05:35:48;;;;;;;;;;;;;;;;;;5052449;28;20021;-46
2024/01/27 05:38:13;;;;;;;;;;;;;;;;;;5052431;28;20010;-43
2024/01/27 05:40:39;;;;;;;;;;;;;;;;;;5052454;28;19947;-45
2024/01/27 05:43:07;;;;;;;;;;;;;;;;;;5052362;28;19928;-43
2024/01/27 05:45:32;;;;;;;;;;;;;;;;;;5051897;28;20343;-46
2024/01/27 05:47:58;;;;;;;;;;;;;;;;;;5058524;28;19928;-44
2024/01/27 05:50:23;;;;;;;;;;;;;;;;;;5072401;28;19932;-45
2024/01/27 05:52:49;;;;;;;;;;;;;;;;;;5072320;28;20027;-47
2024/01/27 05:55:16;;;;;;;;;;;;;;;;;;5071927;28;19924;-44
2024/01/27 05:57:41;;;;;;;;;;;;;;;;;;5072251;28;19978;-43
2024/01/27 06:00:09;;;;;;;;;;;;;;;;;;5071398;28;20023;-43
2024/01/27 06:02:34;;;;;;;;;;;;;;;;;;5071713;28;19932;-44
2024/01/27 06:05:00;;;;;;;;;;;;;;;;;;5072037;28;20015;-44
2024/01/27 06:07:25;;;;;;;;;;;;;;;;;;5071991;28;19931;-43
2024/01/27 06:09:51;;;;;;;;;;;;;;;;;;5071895;28;20106;-45
2024/01/27 06:12:16;;;;;;;;;;;;;;;;;;5072050;28;19978;-43
2024/01/27 06:14:42;;;;;;;;;;;;;;;;;;5072022;28;19924;-44
2024/01/27 06:17:07;;;;;;;;;;;;;;;;;;5072006;28;20014;-44
2024/01/27 06:19:32;;;;;;;;;;;;;;;;;;5074017;28;19928;-43
2024/01/27 06:21:58;;;;;;;;;;;;;;;;;;5075538;28;20370;-42
2024/01/27 06:24:24;;;;;;;;;;;;;;;;;;5075430;28;20011;-43
2024/01/27 06:26:49;;;;;;;;;;;;;;;;;;5075561;28;19925;-45
2024/01/27 06:29:15;;;;;;;;;;;;;;;;;;5075337;28;19925;-45
2024/01/27 06:31:40;;;;;;;;;;;;;;;;;;5075361;28;20387;-46
2024/01/27 06:34:05;;;;;;;;;;;;;;;;;;5075258;28;19959;-46
2024/01/27 06:36:32;;;;;;;;;;;;;;;;;;5075332;28;19966;-43
2024/01/27 06:38:57;;;;;;;;;;;;;;;;;;5075209;28;19924;-43
2024/01/27 06:41:23;;;;;;;;;;;;;;;;;;5074675;28;19963;-43
2024/01/27 06:43:48;;;;;;;;;;;;;;;;;;5074975;28;20003;-44
2024/01/27 06:46:14;;;;;;;;;;;;;;;;;;5075124;28;20314;-44
2024/01/27 06:48:40;;;;;;;;;;;;;;;;;;5075017;28;19924;-43
2024/01/27 06:51:05;;;;;;;;;;;;;;;;;;5055640;28;19932;-43
2024/01/27 06:53:31;;;;;;;;;;;;;;;;;;5055029;28;19928;-43
2024/01/27 06:55:56;;;;;;;;;;;;;;;;;;5054766;28;19932;-44
2024/01/27 06:58:21;;;;;;;;;;;;;;;;;;5055017;28;19960;-43
2024/01/27 07:00:47;;;;;;;;;;;;;;;;;;5054628;28;19972;-43
2024/01/27 07:03:12;;;;;;;;;;;;;;;;;;5055057;28;20019;-44
2024/01/27 07:05:40;;;;;;;;;;;;;;;;;;5054635;28;19925;-43
2024/01/27 07:08:06;;;;;;;;;;;;;;;;;;5054795;28;19925;-45
2024/01/27 07:10:31;;;;;;;;;;;;;;;;;;5054660;28;20013;-45
2024/01/27 07:12:57;;;;;;;;;;;;;;;;;;5054794;28;19968;-43
2024/01/27 07:15:23;;;;;;;;;;;;;;;;;;5054668;28;19924;-45
2024/01/27 07:17:49;;;;;;;;;;;;;;;;;;5054058;28;19987;-44
2024/01/27 07:20:14;;;;;;;;;;;;;;;;;;5054730;28;20368;-44
2024/01/27 07:22:40;;;;;;;;;;;;;;;;;;5054603;28;20426;-46
2024/01/27 07:25:06;;;;;;;;;;;;;;;;;;5054402;28;19979;-43
2024/01/27 07:27:32;;;;;;;;;;;;;;;;;;5054565;28;19929;-45
2024/01/27 07:29:57;;;;;;;;;;;;;;;;;;5054078;28;20016;-44
2024/01/27 07:32:23;;;;;;;;;;;;;;;;;;5054565;28;20381;-44
2024/01/27 07:34:48;;;;;;;;;;;;;;;;;;5054477;28;19925;-44
2024/01/27 07:37:14;;;;;;;;;;;;;;;;;;5054297;28;20023;-45
2024/01/27 07:39:39;;;;;;;;;;;;;;;;;;5054005;28;20404;-44
2024/01/27 07:42:05;;;;;;;;;;;;;;;;;;5054071;28;20364;-44
2024/01/27 07:44:30;;;;;;;;;;;;;;;;;;5054029;28;20363;-43
2024/01/27 07:52:59;;;;;;;;;;;;;;;;;;5054110;28;19925;-43
2024/01/27 07:55:24;;;;;;;;;;;;;;;;;;5053839;28;20250;-43
2024/01/27 07:57:50;;;;;;;;;;;;;;;;;;5053830;28;19964;-45
2024/01/27 08:00:15;;;;;;;;;;;;;;;;;;5053324;28;20257;-43
2024/01/27 08:02:41;;;;;;;;;;;;;;;;;;5053983;28;19932;-44
2024/01/27 08:05:07;;;;;;;;;;;;;;;;;;5053880;28;19931;-45
2024/01/27 08:07:32;;;;;;;;;;;;;;;;;;5053964;28;19940;-45
2024/01/27 08:09:58;;;;;;;;;;;;;;;;;;5053973;28;19924;-44
2024/01/27 08:12:23;;;;;;;;;;;;;;;;;;5053887;28;19971;-44
2024/01/27 08:14:49;;;;;;;;;;;;;;;;;;5053868;28;19952;-44
2024/01/27 08:17:14;;;;;;;;;;;;;;;;;;5053920;28;19959;-43
2024/01/27 08:19:40;;;;;;;;;;;;;;;;;;5053941;28;19925;-46
2024/01/27 08:22:05;;;;;;;;;;;;;;;;;;5053704;28;19924;-43
2024/01/27 08:24:31;;;;;;;;;;;;;;;;;;5053079;28;21852;-44
2024/01/27 08:26:56;;;;;;;;;;;;;;;;;;5053405;28;20418;-45
2024/01/27 08:29:22;;;;;;;;;;;;;;;;;;5053351;28;19984;-44
2024/01/27 08:31:47;;;;;;;;;;;;;;;;;;5053333;28;20047;-43
2024/01/27 08:34:12;;;;;;;;;;;;;;;;;;5053471;28;19971;-45
2024/01/27 08:36:38;;;;;;;;;;;;;;;;;;5051956;28;19932;-43
2024/01/27 08:39:07;;;;;;;;;;;;;;;;;;5053447;28;19932;-45
2024/01/27 08:41:32;;;;;;;;;;;;;;;;;;5052726;28;19929;-43
2024/01/27 08:43:58;;;;;;;;;;;;;;;;;;5053487;28;20321;-46
2024/01/27 08:46:23;;;;;;;;;;;;;;;;;;5053281;28;19925;-44
2024/01/27 08:48:48;;;;;;;;;;;;;;;;;;5053427;28;20386;-43
2024/01/27 08:51:16;;;;;;;;;;;;;;;;;;5056303;28;19939;-45
2024/01/27 08:53:42;;;;;;;;;;;;;;;;;;5053168;28;19928;-44
2024/01/27 08:56:07;;;;;;;;;;;;;;;;;;5052933;28;19948;-45
2024/01/27 08:58:33;;;;;;;;;;;;;;;;;;5053243;28;20019;-43
2024/01/27 09:01:00;;;;;;;;;;;;;;;;;;5052678;28;19963;-44
2024/01/27 09:03:25;;;;;;;;;;;;;;;;;;5053025;28;19931;-44
2024/01/27 09:05:51;;;;;;;;;;;;;;;;;;5053005;28;19928;-44
2024/01/27 09:08:17;;;;;;;;;;;;;;;;;;5053048;28;20028;-43
2024/01/27 09:10:42;;;;;;;;;;;;;;;;;;5052493;28;19925;-46
2024/01/27 09:13:07;;;;;;;;;;;;;;;;;;5053024;28;19925;-42
2024/01/27 09:15:33;;;;;;;;;;;;;;;;;;5052909;28;20024;-44
2024/01/27 09:17:58;;;;;;;;;;;;;;;;;;5053039;28;20368;-44
2024/01/27 09:20:24;;;;;;;;;;;;;;;;;;5052937;28;19951;-44
2024/01/27 09:22:50;;;;;;;;;;;;;;;;;;5052967;28;20023;-42
2024/01/27 09:25:16;;;;;;;;;;;;;;;;;;5052303;28;19956;-43
2024/01/27 09:27:41;;;;;;;;;;;;;;;;;;5052645;28;19975;-43
2024/01/27 09:30:06;;;;;;;;;;;;;;;;;;5052328;28;20004;-42
2024/01/27 09:32:32;;;;;;;;;;;;;;;;;;5052626;28;19935;-44
2024/01/27 09:34:58;;;;;;;;;;;;;;;;;;5052523;28;20058;-42
2024/01/27 09:37:23;;;;;;;;;;;;;;;;;;5052506;28;19925;-42
2024/01/27 09:39:48;;;;;;;;;;;;;;;;;;5052626;28;20007;-42
2024/01/27 09:42:15;;;;;;;;;;;;;;;;;;5052557;28;19925;-45
2024/01/27 09:44:41;;;;;;;;;;;;;;;;;;5052519;28;20492;-43
2024/01/27 09:47:06;;;;;;;;;;;;;;;;;;5052319;28;20424;-42
2024/01/27 09:49:31;;;;;;;;;;;;;;;;;;5052312;28;20364;-44
2024/01/27 09:51:58;;;;;;;;;;;;;;;;;;5052556;28;19982;-43
2024/01/27 09:54:23;;;;;;;;;;;;;;;;;;5064014;28;20019;-45
2024/01/27 09:56:49;;;;;;;;;;;;;;;;;;5066227;28;20438;-44
2024/01/27 09:59:15;;;;;;;;;;;;;;;;;;5071989;28;20015;-44
2024/01/27 10:01:41;;;;;;;;;;;;;;;;;;5071985;28;19967;-44
2024/01/27 10:04:06;;;;;;;;;;;;;;;;;;5067062;28;20019;-45
2024/01/27 10:06:32;;;;;;;;;;;;;;;;;;5072210;28;20015;-43
2024/01/27 10:08:57;;;;;;;;;;;;;;;;;;5071885;28;19947;-46
2024/01/27 10:11:23;;;;;;;;;;;;;;;;;;5071731;28;20407;-42
2024/01/27 10:13:48;;;;;;;;;;;;;;;;;;5072181;28;19974;-42
2024/01/27 10:16:14;;;;;;;;;;;;;;;;;;5052399;28;20357;-44
2024/01/27 10:18:39;;;;;;;;;;;;;;;;;;5052078;28;19925;-42
2024/01/27 10:21:07;;;;;;;;;;;;;;;;;;5052205;28;20380;-43
2024/01/27 10:23:32;;;;;;;;;;;;;;;;;;5052104;28;20023;-42
2024/01/27 10:25:58;;;;;;;;;;;;;;;;;;5051502;28;20024;-44
2024/01/27 10:28:23;;;;;;;;;;;;;;;;;;5051913;28;20018;-42
2024/01/27 10:30:49;;;;;;;;;;;;;;;;;;5051396;28;19925;-45
2024/01/27 10:33:14;;;;;;;;;;;;;;;;;;5051838;28;19967;-43
2024/01/27 10:35:40;;;;;;;;;;;;;;;;;;5051496;28;20019;-43
2024/01/27 10:38:05;;;;;;;;;;;;;;;;;;5051826;28;19960;-44
2024/01/27 10:40:31;;;;;;;;;;;;;;;;;;5051615;28;20032;-44
2024/01/27 10:42:56;;;;;;;;;;;;;;;;;;5051860;28;20407;-43
2024/01/27 10:45:22;;;;;;;;;;;;;;;;;;5051660;28;20344;-44
2024/01/27 10:47:47;;;;;;;;;;;;;;;;;;5051784;28;20011;-44
2024/01/27 10:50:13;;;;;;;;;;;;;;;;;;5051669;28;19925;-43
2024/01/27 10:52:38;;;;;;;;;;;;;;;;;;5051665;28;19952;-43
2024/01/27 10:55:06;;;;;;;;;;;;;;;;;;5051351;28;20372;-43
2024/01/27 10:57:32;;;;;;;;;;;;;;;;;;5051177;28;20112;-42
2024/01/27 10:59:57;;;;;;;;;;;;;;;;;;5051025;28;20461;-45
2024/01/27 11:02:23;;;;;;;;;;;;;;;;;;5051097;28;19932;-43
2024/01/27 11:04:49;;;;;;;;;;;;;;;;;;5051816;28;20016;-43
2024/01/27 11:07:14;;;;;;;;;;;;;;;;;;5054732;28;19929;-44
2024/01/27 11:09:40;;;;;;;;;;;;;;;;;;5054857;28;19964;-44
2024/01/27 11:12:05;;;;;;;;;;;;;;;;;;5054628;28;19929;-42
2024/01/27 11:14:31;;;;;;;;;;;;;;;;;;5054785;28;19968;-45
2024/01/27 11:16:56;;;;;;;;;;;;;;;;;;5062204;28;20249;-44
2024/01/27 11:19:22;;;;;;;;;;;;;;;;;;5074875;28;20338;-43
2024/01/27 11:21:48;;;;;;;;;;;;;;;;;;5074691;28;19932;-43
2024/01/27 11:24:13;;;;;;;;;;;;;;;;;;5074575;28;19924;-44
2024/01/27 11:26:39;;;;;;;;;;;;;;;;;;5071790;28;20326;-44
2024/01/27 11:29:04;;;;;;;;;;;;;;;;;;5074075;28;20022;-43
2024/01/27 11:31:30;;;;;;;;;;;;;;;;;;5074138;28;19931;-43
2024/01/27 11:33:58;;;;;;;;;;;;;;;;;;5074480;28;20367;-42
2024/01/27 11:36:24;;;;;;;;;;;;;;;;;;5074269;28;19963;-42
2024/01/27 11:38:50;;;;;;;;;;;;;;;;;;5074516;28;19924;-43
2024/01/27 11:41:16;;;;;;;;;;;;;;;;;;5074378;28;19936;-44
2024/01/27 11:43:41;;;;;;;;;;;;;;;;;;5074416;28;19971;-43
2024/01/27 11:46:07;;;;;;;;;;;;;;;;;;5074340;28;20012;-44
2024/01/27 11:48:32;;;;;;;;;;;;;;;;;;5074351;28;19982;-43
2024/01/27 11:50:58;;;;;;;;;;;;;;;;;;5074298;28;19924;-43
2024/01/27 11:53:23;;;;;;;;;;;;;;;;;;5074294;28;19924;-43
2024/01/27 11:55:49;;;;;;;;;;;;;;;;;;5073753;28;20042;-44
2024/01/27 11:58:14;;;;;;;;;;;;;;;;;;5073964;28;19971;-43
2024/01/27 12:00:40;;;;;;;;;;;;;;;;;;5073295;28;19964;-44
2024/01/27 12:03:05;;;;;;;;;;;;;;;;;;5074045;28;20437;-45
2024/01/27 12:05:31;;;;;;;;;;;;;;;;;;5073960;28;20406;-44
2024/01/27 12:07:57;;;;;;;;;;;;;;;;;;5074047;28;19947;-42
2024/01/27 12:10:22;;;;;;;;;;;;;;;;;;5073845;28;20004;-46
2024/01/27 12:12:48;;;;;;;;;;;;;;;;;;5074069;28;19963;-42
2024/01/27 12:15:15;;;;;;;;;;;;;;;;;;5073895;28;20030;-42
2024/01/27 12:17:40;;;;;;;;;;;;;;;;;;5070560;28;19928;-43
2024/01/27 12:20:06;;;;;;;;;;;;;;;;;;5071238;28;19958;-44
2024/01/27 12:22:33;;;;;;;;;;;;;;;;;;5073892;28;20054;-46
2024/01/27 12:24:58;;;;;;;;;;;;;;;;;;5073500;28;19924;-43
2024/01/27 12:27:24;;;;;;;;;;;;;;;;;;5073482;28;20023;-45
2024/01/27 12:29:50;;;;;;;;;;;;;;;;;;5072755;28;19925;-44
2024/01/27 12:32:15;;;;;;;;;;;;;;;;;;5073189;28;20338;-45
2024/01/27 12:34:40;;;;;;;;;;;;;;;;;;5073556;28;20372;-44
2024/01/27 12:37:06;;;;;;;;;;;;;;;;;;5073343;28;19971;-44
2024/01/27 12:39:32;;;;;;;;;;;;;;;;;;5073449;28;19947;-42
2024/01/27 12:41:57;;;;;;;;;;;;;;;;;;5073331;28;20032;-43
2024/01/27 12:44:23;;;;;;;;;;;;;;;;;;5073520;28;20387;-43
2024/01/27 12:46:48;;;;;;;;;;;;;;;;;;5073272;28;19925;-42
2024/01/27 12:49:14;;;;;;;;;;;;;;;;;;5073313;28;19973;-42
2024/01/27 12:51:39;;;;;;;;;;;;;;;;;;5073043;28;19964;-44
2024/01/27 12:54:08;;;;;;;;;;;;;;;;;;5073194;28;19924;-42
2024/01/27 12:56:34;;;;;;;;;;;;;;;;;;5073260;28;19974;-42
2024/01/27 12:59:00;;;;;;;;;;;;;;;;;;5072973;28;20019;-43
2024/01/27 13:01:25;;;;;;;;;;;;;;;;;;5072693;28;20037;-42
2024/01/27 13:03:51;;;;;;;;;;;;;;;;;;5073098;28;19947;-43
2024/01/27 13:06:18;;;;;;;;;;;;;;;;;;5072942;28;20011;-42
2024/01/27 13:08:44;;;;;;;;;;;;;;;;;;5072981;28;19970;-44
2024/01/27 13:11:09;;;;;;;;;;;;;;;;;;5072934;28;20011;-42
2024/01/27 13:13:35;;;;;;;;;;;;;;;;;;5072917;28;19972;-43
2024/01/27 13:16:00;;;;;;;;;;;;;;;;;;5072794;28;20015;-43
2024/01/27 13:18:25;;;;;;;;;;;;;;;;;;5072877;28;20463;-45
2024/01/27 13:20:51;;;;;;;;;;;;;;;;;;5061624;28;20003;-43
2024/01/27 13:23:16;;;;;;;;;;;;;;;;;;5052785;28;19935;-43
2024/01/27 13:25:42;;;;;;;;;;;;;;;;;;5052374;28;20361;-43
2024/01/27 13:28:15;;;;;;;;;;;;;;;;;;5052425;28;19925;-43
2024/01/27 13:30:41;;;;;;;;;;;;;;;;;;5052030;28;19931;-44
2024/01/27 13:33:07;;;;;;;;;;;;;;;;;;5052553;28;19932;-43
2024/01/27 13:35:32;;;;;;;;;;;;;;;;;;5052599;28;19968;-43
2024/01/27 13:37:58;;;;;;;;;;;;;;;;;;5052515;28;20012;-43
2024/01/27 13:40:23;;;;;;;;;;;;;;;;;;5052566;28;19968;-44
2024/01/27 13:42:52;;;;;;;;;;;;;;;;;;5052363;28;20292;-43
2024/01/27 13:45:18;;;;;;;;;;;;;;;;;;5052475;28;19925;-43
2024/01/27 13:47:44;;;;;;;;;;;;;;;;;;5052400;28;19931;-43
2024/01/27 13:50:10;;;;;;;;;;;;;;;;;;5052542;28;19955;-42
2024/01/27 13:52:36;;;;;;;;;;;;;;;;;;5052528;28;19925;-44
2024/01/27 13:55:01;;;;;;;;;;;;;;;;;;5052321;28;19925;-43
2024/01/27 13:57:26;;;;;;;;;;;;;;;;;;5052417;28;20015;-44
2024/01/27 13:59:52;;;;;;;;;;;;;;;;;;5051792;28;19960;-43
2024/01/27 14:02:17;;;;;;;;;;;;;;;;;;5052109;28;20432;-43
2024/01/27 14:04:43;;;;;;;;;;;;;;;;;;5052204;28;19991;-43
2024/01/27 14:07:09;;;;;;;;;;;;;;;;;;5052106;28;20019;-43
2024/01/27 14:09:35;;;;;;;;;;;;;;;;;;5051957;28;20378;-42
2024/01/27 14:12:01;;;;;;;;;;;;;;;;;;5052267;28;19960;-43
2024/01/27 14:14:26;;;;;;;;;;;;;;;;;;5052056;28;19941;-42
2024/01/27 14:16:52;;;;;;;;;;;;;;;;;;5052058;28;19924;-43
2024/01/27 14:19:17;;;;;;;;;;;;;;;;;;5052194;28;20415;-43
2024/01/27 14:21:42;;;;;;;;;;;;;;;;;;5058064;28;19983;-42
2024/01/27 14:24:08;;;;;;;;;;;;;;;;;;5051702;28;19925;-45
2024/01/27 14:26:33;;;;;;;;;;;;;;;;;;5051976;28;19980;-43
2024/01/27 14:28:59;;;;;;;;;;;;;;;;;;5051642;28;19987;-43
2024/01/27 14:31:24;;;;;;;;;;;;;;;;;;5051502;28;19933;-43
2024/01/27 14:33:50;;;;;;;;;;;;;;;;;;5051552;28;19925;-44
2024/01/27 14:36:15;;;;;;;;;;;;;;;;;;5051729;28;20368;-43
2024/01/27 14:38:41;;;;;;;;;;;;;;;;;;5051731;28;19925;-44
2024/01/27 14:41:06;;;;;;;;;;;;;;;;;;5054602;28;19975;-43
2024/01/27 14:43:32;;;;;;;;;;;;;;;;;;5055288;28;20011;-43
2024/01/27 14:45:57;;;;;;;;;;;;;;;;;;5055153;28;19971;-43
2024/01/27 14:48:23;;;;;;;;;;;;;;;;;;5055322;28;20036;-43
2024/01/27 14:50:52;;;;;;;;;;;;;;;;;;5055225;28;19925;-43
2024/01/27 14:53:18;;;;;;;;;;;;;;;;;;5054812;28;19924;-42
2024/01/27 14:55:44;;;;;;;;;;;;;;;;;;5055095;28;20016;-42
2024/01/27 14:58:10;;;;;;;;;;;;;;;;;;5055054;28;19928;-42
2024/01/27 15:00:38;;;;;;;;;;;;;;;;;;5054640;28;20440;-42
2024/01/27 15:03:03;;;;;;;;;;;;;;;;;;5054840;28;20011;-43
2024/01/27 15:05:29;;;;;;;;;;;;;;;;;;5054747;28;20011;-43
2024/01/27 15:07:55;;;;;;;;;;;;;;;;;;5054922;28;20226;-43
2024/01/27 15:10:21;;;;;;;;;;;;;;;;;;5054908;28;19925;-43
2024/01/27 15:12:47;;;;;;;;;;;;;;;;;;5054894;28;20265;-45
2024/01/27 15:15:13;;;;;;;;;;;;;;;;;;5054699;28;20024;-43
2024/01/27 15:17:39;;;;;;;;;;;;;;;;;;5054901;28;19978;-43
2024/01/27 15:20:04;;;;;;;;;;;;;;;;;;5054796;28;19924;-45
2024/01/27 15:22:30;;;;;;;;;;;;;;;;;;5054943;28;19972;-42
2024/01/27 15:24:57;;;;;;;;;;;;;;;;;;5070263;28;19924;-45
2024/01/27 15:27:22;;;;;;;;;;;;;;;;;;5074646;28;19963;-43
2024/01/27 15:29:48;;;;;;;;;;;;;;;;;;5071249;28;20065;-43
2024/01/27 15:32:17;;;;;;;;;;;;;;;;;;5074486;28;19963;-45
2024/01/27 15:34:42;;;;;;;;;;;;;;;;;;5074494;28;19932;-46
2024/01/27 15:37:09;;;;;;;;;;;;;;;;;;5074459;28;19925;-44
2024/01/27 15:39:34;;;;;;;;;;;;;;;;;;5074415;28;19968;-45
2024/01/27 15:42:03;;;;;;;;;;;;;;;;;;5074527;28;19947;-43
2024/01/27 15:44:29;;;;;;;;;;;;;;;;;;5074304;28;19925;-43
2024/01/27 15:46:56;;;;;;;;;;;;;;;;;;5074380;28;20379;-45
2024/01/27 15:49:21;;;;;;;;;;;;;;;;;;5074300;28;20038;-43
2024/01/27 15:51:47;;;;;;;;;;;;;;;;;;5074334;28;20399;-44
2024/01/27 15:54:12;;;;;;;;;;;;;;;;;;5073690;28;20358;-43
2024/01/27 15:56:38;;;;;;;;;;;;;;;;;;5074295;28;19978;-45
2024/01/27 15:59:03;;;;;;;;;;;;;;;;;;5073602;28;20008;-44
2024/01/27 16:01:29;;;;;;;;;;;;;;;;;;5073837;28;20464;-43
2024/01/27 16:03:54;;;;;;;;;;;;;;;;;;5073984;28;20007;-43
2024/01/27 16:06:20;;;;;;;;;;;;;;;;;;5073931;28;20331;-44
2024/01/27 16:08:45;;;;;;;;;;;;;;;;;;5074086;28;19924;-43
2024/01/27 16:11:11;;;;;;;;;;;;;;;;;;5073984;28;20015;-46
2024/01/27 16:13:36;;;;;;;;;;;;;;;;;;5073734;28;19968;-44
2024/01/27 16:16:02;;;;;;;;;;;;;;;;;;5073932;28;19930;-41
2024/01/27 16:18:27;;;;;;;;;;;;;;;;;;5073567;28;19960;-40
2024/01/27 16:20:53;;;;;;;;;;;;;;;;;;5073925;28;19929;-40
2024/01/27 16:23:18;;;;;;;;;;;;;;;;;;5073867;28;19924;-41
2024/01/27 16:25:44;;;;;;;;;;;;;;;;;;5072185;28;20007;-41
2024/01/27 16:28:09;;;;;;;;;;;;;;;;;;5073818;28;20043;-43
2024/01/27 16:30:34;;;;;;;;;;;;;;;;;;5072954;28;19924;-41
2024/01/27 16:33:00;;;;;;;;;;;;;;;;;;5073486;28;20364;-42
2024/01/27 16:35:25;;;;;;;;;;;;;;;;;;5073524;28;19960;-40
2024/01/27 16:37:51;;;;;;;;;;;;;;;;;;5073512;28;19959;-40
2024/01/27 16:40:16;;;;;;;;;;;;;;;;;;5073495;28;20007;-41